sensor_id;sensor_type;location;lat;lon;timestamp;P1;durP1;ratioP1;P2;durP2;ratioP2
29044;SDS011;16133;49.486;12.176;2022-09-27T00:00:14;2.83;;;2.00;;
29044;SDS011;16133;49.486;12.176;2022-09-27T00:02:39;3.28;;;1.70;;
29044;SDS011;16133;49.486;12.176;2022-09-27T00:05:05;2.50;;;1.73;;
29044;SDS011;16133;49.486;12.176;2022-09-27T00:07:31;4.53;;;2.40;;
29044;SDS011;16133;49.486;12.176;2022-09-27T00:09:57;2.60;;;1.90;;
29044;SDS011;16133;49.486;12.176;2022-09-27T00:12:22;4.00;;;1.80;;
29044;SDS011;16133;49.486;12.176;2022-09-27T00:14:48;3.92;;;1.95;;
29044;SDS011;16133;49.486;12.176;2022-09-27T00:17:13;3.00;;;1.90;;
29044;SDS011;16133;49.486;12.176;2022-09-27T00:19:38;4.72;;;2.05;;
29044;SDS011;16133;49.486;12.176;2022-09-27T00:22:04;2.58;;;1.70;;
29044;SDS011;16133;49.486;12.176;2022-09-27T00:24:29;2.45;;;1.52;;
29044;SDS011;16133;49.486;12.176;2022-09-27T00:26:55;3.60;;;1.80;;
29044;SDS011;16133;49.486;12.176;2022-09-27T00:29:21;3.25;;;1.77;;
29044;SDS011;16133;49.486;12.176;2022-09-27T00:31:46;2.53;;;1.73;;
29044;SDS011;16133;49.486;12.176;2022-09-27T00:34:15;3.58;;;1.77;;
29044;SDS011;16133;49.486;12.176;2022-09-27T00:36:43;5.47;;;2.00;;
29044;SDS011;16133;49.486;12.176;2022-09-27T00:39:09;2.75;;;1.90;;
29044;SDS011;16133;49.486;12.176;2022-09-27T00:41:36;3.65;;;2.00;;
29044;SDS011;16133;49.486;12.176;2022-09-27T00:44:03;3.95;;;1.80;;
29044;SDS011;16133;49.486;12.176;2022-09-27T00:47:03;3.22;;;1.92;;
29044;SDS011;16133;49.486;12.176;2022-09-27T00:49:56;4.32;;;1.88;;
29044;SDS011;16133;49.486;12.176;2022-09-27T00:52:28;2.53;;;1.90;;
29044;SDS011;16133;49.486;12.176;2022-09-27T00:55:12;4.40;;;2.15;;
29044;SDS011;16133;49.486;12.176;2022-09-27T00:57:41;4.22;;;2.13;;
29044;SDS011;16133;49.486;12.176;2022-09-27T01:00:10;3.63;;;2.22;;
29044;SDS011;16133;49.486;12.176;2022-09-27T01:02:37;4.10;;;2.45;;
29044;SDS011;16133;49.486;12.176;2022-09-27T01:05:05;3.58;;;2.28;;
29044;SDS011;16133;49.486;12.176;2022-09-27T01:10:02;4.53;;;2.80;;
29044;SDS011;16133;49.486;12.176;2022-09-27T01:12:30;6.70;;;2.40;;
29044;SDS011;16133;49.486;12.176;2022-09-27T01:41:57;5.15;;;3.08;;
29044;SDS011;16133;49.486;12.176;2022-09-27T01:44:30;6.80;;;2.80;;
29044;SDS011;16133;49.486;12.176;2022-09-27T01:49:56;5.10;;;2.92;;
29044;SDS011;16133;49.486;12.176;2022-09-27T01:52:46;5.43;;;2.75;;
29044;SDS011;16133;49.486;12.176;2022-09-27T01:55:29;6.30;;;3.08;;
29044;SDS011;16133;49.486;12.176;2022-09-27T01:57:59;4.70;;;2.70;;
29044;SDS011;16133;49.486;12.176;2022-09-27T02:00:32;5.38;;;2.78;;
29044;SDS011;16133;49.486;12.176;2022-09-27T02:03:04;5.65;;;2.78;;
29044;SDS011;16133;49.486;12.176;2022-09-27T02:05:43;6.45;;;2.88;;
29044;SDS011;16133;49.486;12.176;2022-09-27T02:08:21;4.25;;;2.60;;
29044;SDS011;16133;49.486;12.176;2022-09-27T02:11:08;4.68;;;2.80;;
29044;SDS011;16133;49.486;12.176;2022-09-27T02:22:10;4.20;;;2.78;;
29044;SDS011;16133;49.486;12.176;2022-09-27T02:24:45;4.78;;;2.13;;
29044;SDS011;16133;49.486;12.176;2022-09-27T02:27:26;3.47;;;2.22;;
29044;SDS011;16133;49.486;12.176;2022-09-27T02:30:00;4.88;;;2.85;;
29044;SDS011;16133;49.486;12.176;2022-09-27T02:32:30;3.90;;;2.95;;
29044;SDS011;16133;49.486;12.176;2022-09-27T02:34:56;3.85;;;2.60;;
29044;SDS011;16133;49.486;12.176;2022-09-27T02:37:25;4.05;;;2.72;;
29044;SDS011;16133;49.486;12.176;2022-09-27T02:39:50;4.18;;;2.40;;
29044;SDS011;16133;49.486;12.176;2022-09-27T02:42:16;4.40;;;2.33;;
29044;SDS011;16133;49.486;12.176;2022-09-27T02:44:41;4.97;;;3.17;;
29044;SDS011;16133;49.486;12.176;2022-09-27T03:01:50;4.03;;;2.63;;
29044;SDS011;16133;49.486;12.176;2022-09-27T03:04:38;5.15;;;2.95;;
29044;SDS011;16133;49.486;12.176;2022-09-27T03:07:05;4.38;;;2.42;;
29044;SDS011;16133;49.486;12.176;2022-09-27T03:09:44;5.32;;;2.92;;
29044;SDS011;16133;49.486;12.176;2022-09-27T03:12:12;8.27;;;3.00;;
29044;SDS011;16133;49.486;12.176;2022-09-27T03:14:39;5.15;;;3.10;;
29044;SDS011;16133;49.486;12.176;2022-09-27T03:17:05;4.20;;;2.63;;
29044;SDS011;16133;49.486;12.176;2022-09-27T03:19:30;3.60;;;2.45;;
29044;SDS011;16133;49.486;12.176;2022-09-27T03:21:56;5.75;;;3.03;;
29044;SDS011;16133;49.486;12.176;2022-09-27T03:24:21;5.22;;;3.00;;
29044;SDS011;16133;49.486;12.176;2022-09-27T03:26:47;5.20;;;2.80;;
29044;SDS011;16133;49.486;12.176;2022-09-27T03:29:12;4.75;;;2.63;;
29044;SDS011;16133;49.486;12.176;2022-09-27T03:31:37;5.28;;;3.17;;
29044;SDS011;16133;49.486;12.176;2022-09-27T03:34:03;6.95;;;3.33;;
29044;SDS011;16133;49.486;12.176;2022-09-27T03:36:29;7.03;;;2.88;;
29044;SDS011;16133;49.486;12.176;2022-09-27T03:38:54;8.95;;;4.10;;
29044;SDS011;16133;49.486;12.176;2022-09-27T03:41:20;6.22;;;3.45;;
29044;SDS011;16133;49.486;12.176;2022-09-27T03:43:45;6.57;;;3.17;;
29044;SDS011;16133;49.486;12.176;2022-09-27T03:46:10;5.38;;;3.20;;
29044;SDS011;16133;49.486;12.176;2022-09-27T03:48:36;6.88;;;3.88;;
29044;SDS011;16133;49.486;12.176;2022-09-27T03:51:01;5.30;;;3.05;;
29044;SDS011;16133;49.486;12.176;2022-09-27T03:53:28;6.65;;;3.28;;
29044;SDS011;16133;49.486;12.176;2022-09-27T03:55:54;6.13;;;3.40;;
29044;SDS011;16133;49.486;12.176;2022-09-27T03:58:19;6.30;;;3.80;;
29044;SDS011;16133;49.486;12.176;2022-09-27T04:00:45;5.30;;;3.05;;
29044;SDS011;16133;49.486;12.176;2022-09-27T04:03:11;5.22;;;3.42;;
29044;SDS011;16133;49.486;12.176;2022-09-27T04:05:37;4.88;;;2.90;;
29044;SDS011;16133;49.486;12.176;2022-09-27T04:08:02;4.55;;;2.50;;
29044;SDS011;16133;49.486;12.176;2022-09-27T04:10:30;4.85;;;3.05;;
29044;SDS011;16133;49.486;12.176;2022-09-27T04:12:55;4.35;;;2.80;;
29044;SDS011;16133;49.486;12.176;2022-09-27T04:15:21;4.95;;;2.72;;
29044;SDS011;16133;49.486;12.176;2022-09-27T04:17:46;3.53;;;2.28;;
29044;SDS011;16133;49.486;12.176;2022-09-27T04:20:12;4.97;;;2.58;;
29044;SDS011;16133;49.486;12.176;2022-09-27T04:22:38;5.03;;;2.90;;
29044;SDS011;16133;49.486;12.176;2022-09-27T04:25:05;5.70;;;2.45;;
29044;SDS011;16133;49.486;12.176;2022-09-27T04:27:32;4.30;;;2.30;;
29044;SDS011;16133;49.486;12.176;2022-09-27T04:29:58;4.43;;;2.65;;
29044;SDS011;16133;49.486;12.176;2022-09-27T04:32:23;4.00;;;2.75;;
29044;SDS011;16133;49.486;12.176;2022-09-27T04:34:48;3.47;;;2.13;;
29044;SDS011;16133;49.486;12.176;2022-09-27T04:39:57;4.05;;;2.17;;
29044;SDS011;16133;49.486;12.176;2022-09-27T04:42:23;3.45;;;1.95;;
29044;SDS011;16133;49.486;12.176;2022-09-27T04:44:48;2.97;;;2.03;;
29044;SDS011;16133;49.486;12.176;2022-09-27T04:47:13;3.20;;;1.67;;
29044;SDS011;16133;49.486;12.176;2022-09-27T04:49:39;3.25;;;1.95;;
29044;SDS011;16133;49.486;12.176;2022-09-27T04:52:04;3.67;;;1.92;;
29044;SDS011;16133;49.486;12.176;2022-09-27T04:54:30;4.50;;;1.90;;
29044;SDS011;16133;49.486;12.176;2022-09-27T04:56:55;2.70;;;1.90;;
29044;SDS011;16133;49.486;12.176;2022-09-27T04:59:21;4.00;;;1.70;;
29044;SDS011;16133;49.486;12.176;2022-09-27T05:01:46;4.30;;;1.45;;
29044;SDS011;16133;49.486;12.176;2022-09-27T05:04:12;3.35;;;1.98;;
29044;SDS011;16133;49.486;12.176;2022-09-27T05:06:37;3.33;;;1.77;;
29044;SDS011;16133;49.486;12.176;2022-09-27T05:09:02;2.42;;;1.45;;
29044;SDS011;16133;49.486;12.176;2022-09-27T05:11:28;2.25;;;1.70;;
29044;SDS011;16133;49.486;12.176;2022-09-27T05:13:54;2.65;;;1.70;;
29044;SDS011;16133;49.486;12.176;2022-09-27T05:16:19;4.63;;;1.60;;
29044;SDS011;16133;49.486;12.176;2022-09-27T05:18:44;4.43;;;1.55;;
29044;SDS011;16133;49.486;12.176;2022-09-27T05:21:10;4.25;;;1.80;;
29044;SDS011;16133;49.486;12.176;2022-09-27T05:23:35;3.08;;;1.63;;
29044;SDS011;16133;49.486;12.176;2022-09-27T05:26:04;2.88;;;1.98;;
29044;SDS011;16133;49.486;12.176;2022-09-27T05:28:31;3.28;;;1.73;;
29044;SDS011;16133;49.486;12.176;2022-09-27T05:30:59;3.05;;;2.20;;
29044;SDS011;16133;49.486;12.176;2022-09-27T05:33:24;2.83;;;1.50;;
29044;SDS011;16133;49.486;12.176;2022-09-27T05:35:50;1.95;;;1.20;;
29044;SDS011;16133;49.486;12.176;2022-09-27T05:38:19;1.83;;;1.30;;
29044;SDS011;16133;49.486;12.176;2022-09-27T05:40:45;2.05;;;1.30;;
29044;SDS011;16133;49.486;12.176;2022-09-27T05:43:14;2.00;;;1.20;;
29044;SDS011;16133;49.486;12.176;2022-09-27T05:45:40;1.85;;;1.15;;
29044;SDS011;16133;49.486;12.176;2022-09-27T05:48:07;2.28;;;1.40;;
29044;SDS011;16133;49.486;12.176;2022-09-27T05:50:32;1.58;;;1.10;;
29044;SDS011;16133;49.486;12.176;2022-09-27T05:52:58;2.45;;;1.30;;
29044;SDS011;16133;49.486;12.176;2022-09-27T05:55:23;1.83;;;1.50;;
29044;SDS011;16133;49.486;12.176;2022-09-27T05:58:22;0.75;;;0.75;;
29044;SDS011;16133;49.486;12.176;2022-09-27T06:00:41;1.45;;;1.13;;
29044;SDS011;16133;49.486;12.176;2022-09-27T06:03:07;1.13;;;0.93;;
29044;SDS011;16133;49.486;12.176;2022-09-27T06:05:36;1.77;;;1.05;;
29044;SDS011;16133;49.486;12.176;2022-09-27T06:08:03;1.50;;;0.90;;
29044;SDS011;16133;49.486;12.176;2022-09-27T06:10:31;2.60;;;1.00;;
29044;SDS011;16133;49.486;12.176;2022-09-27T06:12:58;2.33;;;1.25;;
29044;SDS011;16133;49.486;12.176;2022-09-27T06:15:26;1.77;;;1.10;;
29044;SDS011;16133;49.486;12.176;2022-09-27T06:17:52;1.23;;;0.90;;
29044;SDS011;16133;49.486;12.176;2022-09-27T06:20:17;1.55;;;0.80;;
29044;SDS011;16133;49.486;12.176;2022-09-27T06:22:42;1.55;;;0.80;;
29044;SDS011;16133;49.486;12.176;2022-09-27T06:25:10;1.13;;;0.70;;
29044;SDS011;16133;49.486;12.176;2022-09-27T06:27:35;1.05;;;0.70;;
29044;SDS011;16133;49.486;12.176;2022-09-27T06:30:01;1.13;;;0.82;;
29044;SDS011;16133;49.486;12.176;2022-09-27T06:32:26;1.73;;;0.52;;
29044;SDS011;16133;49.486;12.176;2022-09-27T06:34:52;0.90;;;0.50;;
29044;SDS011;16133;49.486;12.176;2022-09-27T06:37:17;3.70;;;0.77;;
29044;SDS011;16133;49.486;12.176;2022-09-27T06:39:42;1.40;;;0.60;;
29044;SDS011;16133;49.486;12.176;2022-09-27T06:42:08;0.85;;;0.50;;
29044;SDS011;16133;49.486;12.176;2022-09-27T06:44:35;2.22;;;0.77;;
29044;SDS011;16133;49.486;12.176;2022-09-27T06:47:00;0.57;;;0.50;;
29044;SDS011;16133;49.486;12.176;2022-09-27T06:49:25;0.60;;;0.60;;
29044;SDS011;16133;49.486;12.176;2022-09-27T06:51:51;2.58;;;0.40;;
29044;SDS011;16133;49.486;12.176;2022-09-27T06:54:17;0.90;;;0.40;;
29044;SDS011;16133;49.486;12.176;2022-09-27T06:56:47;2.38;;;0.60;;
29044;SDS011;16133;49.486;12.176;2022-09-27T06:59:13;0.55;;;0.40;;
29044;SDS011;16133;49.486;12.176;2022-09-27T07:01:56;0.75;;;0.32;;
29044;SDS011;16133;49.486;12.176;2022-09-27T07:04:22;0.75;;;0.30;;
29044;SDS011;16133;49.486;12.176;2022-09-27T07:06:49;0.60;;;0.60;;
29044;SDS011;16133;49.486;12.176;2022-09-27T07:09:14;0.60;;;0.50;;
29044;SDS011;16133;49.486;12.176;2022-09-27T07:11:40;0.55;;;0.40;;
29044;SDS011;16133;49.486;12.176;2022-09-27T07:14:07;0.65;;;0.40;;
29044;SDS011;16133;49.486;12.176;2022-09-27T07:16:34;1.92;;;0.45;;
29044;SDS011;16133;49.486;12.176;2022-09-27T07:18:59;0.50;;;0.30;;
29044;SDS011;16133;49.486;12.176;2022-09-27T07:21:25;0.80;;;0.40;;
29044;SDS011;16133;49.486;12.176;2022-09-27T07:23:50;0.43;;;0.35;;
29044;SDS011;16133;49.486;12.176;2022-09-27T07:26:16;0.40;;;0.30;;
29044;SDS011;16133;49.486;12.176;2022-09-27T07:28:42;0.82;;;0.50;;
29044;SDS011;16133;49.486;12.176;2022-09-27T07:31:09;1.05;;;0.40;;
29044;SDS011;16133;49.486;12.176;2022-09-27T07:33:34;1.40;;;0.40;;
29044;SDS011;16133;49.486;12.176;2022-09-27T07:36:05;2.22;;;0.55;;
29044;SDS011;16133;49.486;12.176;2022-09-27T07:38:31;1.30;;;0.40;;
29044;SDS011;16133;49.486;12.176;2022-09-27T07:40:57;0.85;;;0.65;;
29044;SDS011;16133;49.486;12.176;2022-09-27T07:43:23;0.50;;;0.50;;
29044;SDS011;16133;49.486;12.176;2022-09-27T07:45:48;2.55;;;0.55;;
29044;SDS011;16133;49.486;12.176;2022-09-27T07:48:14;1.05;;;0.60;;
29044;SDS011;16133;49.486;12.176;2022-09-27T07:50:40;1.70;;;0.52;;
29044;SDS011;16133;49.486;12.176;2022-09-27T07:53:06;0.45;;;0.30;;
29044;SDS011;16133;49.486;12.176;2022-09-27T07:55:31;1.92;;;0.43;;
29044;SDS011;16133;49.486;12.176;2022-09-27T07:58:04;1.58;;;0.40;;
29044;SDS011;16133;49.486;12.176;2022-09-27T08:00:34;0.55;;;0.40;;
29044;SDS011;16133;49.486;12.176;2022-09-27T08:03:08;1.63;;;0.45;;
29044;SDS011;16133;49.486;12.176;2022-09-27T08:05:39;0.82;;;0.40;;
29044;SDS011;16133;49.486;12.176;2022-09-27T08:08:05;0.93;;;0.52;;
29044;SDS011;16133;49.486;12.176;2022-09-27T08:10:31;2.70;;;0.80;;
29044;SDS011;16133;49.486;12.176;2022-09-27T08:12:58;6.75;;;0.88;;
29044;SDS011;16133;49.486;12.176;2022-09-27T08:15:27;0.85;;;0.38;;
29044;SDS011;16133;49.486;12.176;2022-09-27T08:17:52;0.40;;;0.30;;
29044;SDS011;16133;49.486;12.176;2022-09-27T08:20:18;2.83;;;0.50;;
29044;SDS011;16133;49.486;12.176;2022-09-27T08:22:43;2.33;;;0.63;;
29044;SDS011;16133;49.486;12.176;2022-09-27T08:25:09;1.48;;;0.55;;
29044;SDS011;16133;49.486;12.176;2022-09-27T08:27:35;0.82;;;0.20;;
29044;SDS011;16133;49.486;12.176;2022-09-27T08:30:00;2.97;;;0.40;;
29044;SDS011;16133;49.486;12.176;2022-09-27T08:32:27;0.90;;;0.40;;
29044;SDS011;16133;49.486;12.176;2022-09-27T08:34:54;2.25;;;0.60;;
29044;SDS011;16133;49.486;12.176;2022-09-27T08:37:20;2.08;;;0.70;;
29044;SDS011;16133;49.486;12.176;2022-09-27T08:39:45;0.50;;;0.45;;
29044;SDS011;16133;49.486;12.176;2022-09-27T08:47:13;0.70;;;0.40;;
29044;SDS011;16133;49.486;12.176;2022-09-27T08:49:47;0.80;;;0.50;;
29044;SDS011;16133;49.486;12.176;2022-09-27T08:52:37;0.52;;;0.40;;
29044;SDS011;16133;49.486;12.176;2022-09-27T08:55:07;0.35;;;0.30;;
29044;SDS011;16133;49.486;12.176;2022-09-27T08:57:54;1.85;;;0.40;;
29044;SDS011;16133;49.486;12.176;2022-09-27T09:00:21;0.30;;;0.30;;
29044;SDS011;16133;49.486;12.176;2022-09-27T09:02:47;0.90;;;0.40;;
29044;SDS011;16133;49.486;12.176;2022-09-27T09:05:14;0.70;;;0.63;;
29044;SDS011;16133;49.486;12.176;2022-09-27T09:10:56;0.40;;;0.40;;
29044;SDS011;16133;49.486;12.176;2022-09-27T09:21:54;1.13;;;0.47;;
29044;SDS011;16133;49.486;12.176;2022-09-27T09:34:26;0.28;;;0.28;;
29044;SDS011;16133;49.486;12.176;2022-09-27T09:36:58;0.20;;;0.20;;
29044;SDS011;16133;49.486;12.176;2022-09-27T09:50:27;0.75;;;0.57;;
29044;SDS011;16133;49.486;12.176;2022-09-27T09:53:03;0.45;;;0.35;;
29044;SDS011;16133;49.486;12.176;2022-09-27T09:55:42;0.70;;;0.38;;
29044;SDS011;16133;49.486;12.176;2022-09-27T10:01:07;1.25;;;0.63;;
29044;SDS011;16133;49.486;12.176;2022-09-27T10:03:47;0.43;;;0.40;;
29044;SDS011;16133;49.486;12.176;2022-09-27T10:06:12;1.65;;;0.43;;
29044;SDS011;16133;49.486;12.176;2022-09-27T10:08:40;0.57;;;0.40;;
29044;SDS011;16133;49.486;12.176;2022-09-27T10:11:06;0.47;;;0.30;;
29044;SDS011;16133;49.486;12.176;2022-09-27T10:13:47;0.57;;;0.40;;
29044;SDS011;16133;49.486;12.176;2022-09-27T10:16:14;1.02;;;0.57;;
29044;SDS011;16133;49.486;12.176;2022-09-27T10:18:42;2.10;;;0.75;;
29044;SDS011;16133;49.486;12.176;2022-09-27T10:21:10;0.70;;;0.50;;
29044;SDS011;16133;49.486;12.176;2022-09-27T10:26:37;0.98;;;0.40;;
29044;SDS011;16133;49.486;12.176;2022-09-27T10:31:43;0.45;;;0.30;;
29044;SDS011;16133;49.486;12.176;2022-09-27T10:39:49;0.65;;;0.40;;
29044;SDS011;16133;49.486;12.176;2022-09-27T10:42:35;0.47;;;0.40;;
29044;SDS011;16133;49.486;12.176;2022-09-27T10:45:47;0.68;;;0.40;;
29044;SDS011;16133;49.486;12.176;2022-09-27T10:47:48;0.88;;;0.68;;
29044;SDS011;16133;49.486;12.176;2022-09-27T10:50:17;0.65;;;0.50;;
29044;SDS011;16133;49.486;12.176;2022-09-27T10:52:46;3.75;;;0.70;;
29044;SDS011;16133;49.486;12.176;2022-09-27T10:55:21;0.40;;;0.40;;
29044;SDS011;16133;49.486;12.176;2022-09-27T10:57:51;0.60;;;0.43;;
29044;SDS011;16133;49.486;12.176;2022-09-27T11:00:22;0.30;;;0.30;;
29044;SDS011;16133;49.486;12.176;2022-09-27T11:02:53;0.70;;;0.40;;
29044;SDS011;16133;49.486;12.176;2022-09-27T11:07:51;0.30;;;0.30;;
29044;SDS011;16133;49.486;12.176;2022-09-27T11:15:43;1.13;;;0.50;;
29044;SDS011;16133;49.486;12.176;2022-09-27T12:01:17;0.57;;;0.22;;
29044;SDS011;16133;49.486;12.176;2022-09-27T12:06:36;1.42;;;0.90;;
29044;SDS011;16133;49.486;12.176;2022-09-27T12:09:14;0.75;;;0.32;;
29044;SDS011;16133;49.486;12.176;2022-09-27T12:11:53;0.45;;;0.30;;
29044;SDS011;16133;49.486;12.176;2022-09-27T12:17:01;0.40;;;0.30;;
29044;SDS011;16133;49.486;12.176;2022-09-27T12:19:31;0.68;;;0.50;;
29044;SDS011;16133;49.486;12.176;2022-09-27T12:22:01;0.35;;;0.30;;
29044;SDS011;16133;49.486;12.176;2022-09-27T12:24:30;2.13;;;0.38;;
29044;SDS011;16133;49.486;12.176;2022-09-27T12:26:58;0.45;;;0.30;;
29044;SDS011;16133;49.486;12.176;2022-09-27T12:29:28;0.80;;;0.28;;
29044;SDS011;16133;49.486;12.176;2022-09-27T12:32:04;0.52;;;0.30;;
29044;SDS011;16133;49.486;12.176;2022-09-27T12:34:39;0.30;;;0.30;;
29044;SDS011;16133;49.486;12.176;2022-09-27T12:40:02;0.57;;;0.40;;
29044;SDS011;16133;49.486;12.176;2022-09-27T12:42:30;0.30;;;0.30;;
29044;SDS011;16133;49.486;12.176;2022-09-27T12:45:02;0.20;;;0.20;;
29044;SDS011;16133;49.486;12.176;2022-09-27T12:53:00;0.40;;;0.30;;
29044;SDS011;16133;49.486;12.176;2022-09-27T13:00:32;0.10;;;0.10;;
29044;SDS011;16133;49.486;12.176;2022-09-27T13:11:39;0.22;;;0.22;;
29044;SDS011;16133;49.486;12.176;2022-09-27T13:14:05;0.50;;;0.30;;
29044;SDS011;16133;49.486;12.176;2022-09-27T13:16:42;0.30;;;0.30;;
29044;SDS011;16133;49.486;12.176;2022-09-27T13:19:18;0.40;;;0.30;;
29044;SDS011;16133;49.486;12.176;2022-09-27T13:22:05;0.22;;;0.22;;
29044;SDS011;16133;49.486;12.176;2022-09-27T13:29:46;1.65;;;0.30;;
29044;SDS011;16133;49.486;12.176;2022-09-27T13:32:21;1.65;;;0.30;;
29044;SDS011;16133;49.486;12.176;2022-09-27T13:34:52;0.75;;;0.30;;
29044;SDS011;16133;49.486;12.176;2022-09-27T13:45:21;0.35;;;0.30;;
29044;SDS011;16133;49.486;12.176;2022-09-27T13:47:52;0.50;;;0.50;;
29044;SDS011;16133;49.486;12.176;2022-09-27T13:50:24;0.20;;;0.20;;
29044;SDS011;16133;49.486;12.176;2022-09-27T13:53:35;0.30;;;0.20;;
29044;SDS011;16133;49.486;12.176;2022-09-27T13:55:52;0.20;;;0.20;;
29044;SDS011;16133;49.486;12.176;2022-09-27T14:00:44;0.20;;;0.20;;
29044;SDS011;16133;49.486;12.176;2022-09-27T14:03:14;0.93;;;0.40;;
29044;SDS011;16133;49.486;12.176;2022-09-27T14:05:49;0.22;;;0.20;;
29044;SDS011;16133;49.486;12.176;2022-09-27T14:13:34;1.00;;;0.47;;
29044;SDS011;16133;49.486;12.176;2022-09-27T14:16:02;0.32;;;0.32;;
29044;SDS011;16133;49.486;12.176;2022-09-27T14:18:29;0.55;;;0.55;;
29044;SDS011;16133;49.486;12.176;2022-09-27T14:23:35;0.63;;;0.55;;
29044;SDS011;16133;49.486;12.176;2022-09-27T14:26:00;0.40;;;0.40;;
29044;SDS011;16133;49.486;12.176;2022-09-27T14:28:27;1.45;;;0.65;;
29044;SDS011;16133;49.486;12.176;2022-09-27T14:33:35;0.40;;;0.30;;
29044;SDS011;16133;49.486;12.176;2022-09-27T14:36:01;0.70;;;0.40;;
29044;SDS011;16133;49.486;12.176;2022-09-27T14:38:45;0.43;;;0.43;;
29044;SDS011;16133;49.486;12.176;2022-09-27T14:41:12;0.45;;;0.45;;
29044;SDS011;16133;49.486;12.176;2022-09-27T14:43:43;0.70;;;0.60;;
29044;SDS011;16133;49.486;12.176;2022-09-27T14:46:25;0.73;;;0.68;;
29044;SDS011;16133;49.486;12.176;2022-09-27T14:48:53;0.90;;;0.50;;
29044;SDS011;16133;49.486;12.176;2022-09-27T14:51:20;0.85;;;0.50;;
29044;SDS011;16133;49.486;12.176;2022-09-27T14:53:51;0.75;;;0.60;;
29044;SDS011;16133;49.486;12.176;2022-09-27T14:56:22;2.72;;;0.88;;
29044;SDS011;16133;49.486;12.176;2022-09-27T14:58:57;2.53;;;0.93;;
29044;SDS011;16133;49.486;12.176;2022-09-27T15:01:26;1.25;;;0.82;;
29044;SDS011;16133;49.486;12.176;2022-09-27T15:03:53;1.08;;;0.82;;
29044;SDS011;16133;49.486;12.176;2022-09-27T15:06:20;1.15;;;1.00;;
29044;SDS011;16133;49.486;12.176;2022-09-27T15:08:47;2.08;;;0.93;;
29044;SDS011;16133;49.486;12.176;2022-09-27T15:11:16;1.55;;;0.88;;
29044;SDS011;16133;49.486;12.176;2022-09-27T15:13:43;0.95;;;0.85;;
29044;SDS011;16133;49.486;12.176;2022-09-27T15:16:15;5.28;;;2.15;;
29044;SDS011;16133;49.486;12.176;2022-09-27T15:18:45;6.13;;;1.80;;
29044;SDS011;16133;49.486;12.176;2022-09-27T15:21:13;1.90;;;1.10;;
29044;SDS011;16133;49.486;12.176;2022-09-27T15:23:51;2.00;;;1.30;;
29044;SDS011;16133;49.486;12.176;2022-09-27T15:26:22;2.90;;;1.58;;
29044;SDS011;16133;49.486;12.176;2022-09-27T15:28:51;1.83;;;1.33;;
29044;SDS011;16133;49.486;12.176;2022-09-27T15:31:26;4.40;;;1.83;;
29044;SDS011;16133;49.486;12.176;2022-09-27T15:33:54;2.63;;;1.55;;
29044;SDS011;16133;49.486;12.176;2022-09-27T15:39:08;3.13;;;1.35;;
29044;SDS011;16133;49.486;12.176;2022-09-27T15:42:20;2.10;;;1.20;;
29044;SDS011;16133;49.486;12.176;2022-09-27T15:52:41;3.33;;;1.50;;
29044;SDS011;16133;49.486;12.176;2022-09-27T15:55:17;1.60;;;1.40;;
29044;SDS011;16133;49.486;12.176;2022-09-27T15:57:47;2.53;;;1.48;;
29044;SDS011;16133;49.486;12.176;2022-09-27T16:00:15;3.10;;;1.05;;
29044;SDS011;16133;49.486;12.176;2022-09-27T16:02:43;1.70;;;1.05;;
29044;SDS011;16133;49.486;12.176;2022-09-27T16:05:09;2.65;;;0.98;;
29044;SDS011;16133;49.486;12.176;2022-09-27T16:07:34;1.05;;;0.68;;
29044;SDS011;16133;49.486;12.176;2022-09-27T16:10:00;2.38;;;1.00;;
29044;SDS011;16133;49.486;12.176;2022-09-27T16:12:25;1.75;;;0.90;;
29044;SDS011;16133;49.486;12.176;2022-09-27T16:14:54;2.58;;;1.00;;
29044;SDS011;16133;49.486;12.176;2022-09-27T16:17:20;1.30;;;1.00;;
29044;SDS011;16133;49.486;12.176;2022-09-27T16:19:45;2.75;;;0.70;;
29044;SDS011;16133;49.486;12.176;2022-09-27T16:22:11;1.60;;;0.60;;
29044;SDS011;16133;49.486;12.176;2022-09-27T16:24:36;1.08;;;0.40;;
29044;SDS011;16133;49.486;12.176;2022-09-27T16:27:02;1.38;;;0.60;;
29044;SDS011;16133;49.486;12.176;2022-09-27T16:29:27;0.70;;;0.57;;
29044;SDS011;16133;49.486;12.176;2022-09-27T16:31:53;0.68;;;0.55;;
29044;SDS011;16133;49.486;12.176;2022-09-27T16:34:18;1.95;;;0.80;;
29044;SDS011;16133;49.486;12.176;2022-09-27T16:36:44;0.90;;;0.30;;
29044;SDS011;16133;49.486;12.176;2022-09-27T16:39:10;1.58;;;0.90;;
29044;SDS011;16133;49.486;12.176;2022-09-27T16:41:37;1.92;;;1.17;;
29044;SDS011;16133;49.486;12.176;2022-09-27T16:44:06;0.93;;;0.70;;
29044;SDS011;16133;49.486;12.176;2022-09-27T16:46:38;2.58;;;0.80;;
29044;SDS011;16133;49.486;12.176;2022-09-27T16:49:05;1.02;;;0.57;;
29044;SDS011;16133;49.486;12.176;2022-09-27T16:51:50;0.55;;;0.40;;
29044;SDS011;16133;49.486;12.176;2022-09-27T16:54:25;0.85;;;0.40;;
29044;SDS011;16133;49.486;12.176;2022-09-27T16:56:54;0.88;;;0.70;;
29044;SDS011;16133;49.486;12.176;2022-09-27T16:59:20;0.95;;;0.63;;
29044;SDS011;16133;49.486;12.176;2022-09-27T17:01:46;2.42;;;0.85;;
29044;SDS011;16133;49.486;12.176;2022-09-27T17:04:12;1.15;;;0.80;;
29044;SDS011;16133;49.486;12.176;2022-09-27T17:06:40;2.10;;;1.25;;
29044;SDS011;16133;49.486;12.176;2022-09-27T17:09:06;1.25;;;1.00;;
29044;SDS011;16133;49.486;12.176;2022-09-27T17:11:31;1.75;;;0.90;;
29044;SDS011;16133;49.486;12.176;2022-09-27T17:13:57;0.73;;;0.60;;
29044;SDS011;16133;49.486;12.176;2022-09-27T17:16:23;0.85;;;0.73;;
29044;SDS011;16133;49.486;12.176;2022-09-27T17:18:49;2.88;;;0.95;;
29044;SDS011;16133;49.486;12.176;2022-09-27T17:21:14;1.95;;;0.60;;
29044;SDS011;16133;49.486;12.176;2022-09-27T17:23:40;3.72;;;1.90;;
29044;SDS011;16133;49.486;12.176;2022-09-27T17:26:07;3.30;;;1.95;;
29044;SDS011;16133;49.486;12.176;2022-09-27T17:28:38;4.10;;;1.20;;
29044;SDS011;16133;49.486;12.176;2022-09-27T17:31:06;5.40;;;1.30;;
29044;SDS011;16133;49.486;12.176;2022-09-27T17:33:34;4.35;;;1.02;;
29044;SDS011;16133;49.486;12.176;2022-09-27T17:36:06;1.23;;;0.80;;
29044;SDS011;16133;49.486;12.176;2022-09-27T17:38:32;1.92;;;0.82;;
29044;SDS011;16133;49.486;12.176;2022-09-27T17:40:58;0.70;;;0.68;;
29044;SDS011;16133;49.486;12.176;2022-09-27T17:43:27;0.88;;;0.70;;
29044;SDS011;16133;49.486;12.176;2022-09-27T17:46:17;2.50;;;0.80;;
29044;SDS011;16133;49.486;12.176;2022-09-27T17:48:44;1.88;;;1.00;;
29044;SDS011;16133;49.486;12.176;2022-09-27T17:51:28;1.60;;;1.10;;
29044;SDS011;16133;49.486;12.176;2022-09-27T17:53:55;1.33;;;1.23;;
29044;SDS011;16133;49.486;12.176;2022-09-27T17:56:20;2.00;;;1.33;;
29044;SDS011;16133;49.486;12.176;2022-09-27T18:01:13;1.98;;;1.30;;
29044;SDS011;16133;49.486;12.176;2022-09-27T18:03:40;2.75;;;1.15;;
29044;SDS011;16133;49.486;12.176;2022-09-27T18:06:06;1.30;;;1.10;;
29044;SDS011;16133;49.486;12.176;2022-09-27T18:08:32;1.52;;;1.08;;
29044;SDS011;16133;49.486;12.176;2022-09-27T18:11:18;1.60;;;1.10;;
29044;SDS011;16133;49.486;12.176;2022-09-27T18:13:55;1.77;;;1.23;;
29044;SDS011;16133;49.486;12.176;2022-09-27T18:16:24;2.00;;;1.38;;
29044;SDS011;16133;49.486;12.176;2022-09-27T18:18:53;1.80;;;1.30;;
29044;SDS011;16133;49.486;12.176;2022-09-27T18:21:19;1.85;;;1.10;;
29044;SDS011;16133;49.486;12.176;2022-09-27T18:23:47;1.80;;;1.17;;
29044;SDS011;16133;49.486;12.176;2022-09-27T18:26:16;2.20;;;1.00;;
29044;SDS011;16133;49.486;12.176;2022-09-27T18:28:43;2.85;;;1.50;;
29044;SDS011;16133;49.486;12.176;2022-09-27T18:31:09;3.03;;;1.17;;